Time;durP1;ratioP1;P1;durP2;ratioP2;P2;SDS_P1;SDS_P2;PMS_P1;PMS_P2;Temp;Humidity;BMP_temperature;BMP_pressure;BME280_temperature;BME280_humidity;BME280_pressure;Samples;Min_cycle;Max_cycle;Signal;HPM_P1;HPM_P2
2021/04/20 00:01:22;;;;;;;;;;;;;;;22.26;37.64;101650.78;2195475;39;115065;-57
2021/04/20 00:03:00;;;;;;;;;;;;;;;22.26;37.94;101654.38;2195329;39;114983;-57
2021/04/20 00:04:31;;;;;;;;;;;;;;;22.26;37.74;101653.59;2199927;39;114993;-57
2021/04/20 00:06:05;;;;;;;;;;;;;;;22.27;37.86;101656.06;2197514;39;115816;-56
2021/04/20 00:07:36;;;;;;;;;;;;;;;22.26;37.89;101651.56;2198543;39;115530;-57
2021/04/20 00:09:36;;;;;;;;;;;;;;;22.25;37.68;101649.09;2196063;39;114367;-59
2021/04/20 00:11:36;;;;;;;;;;;;;;;22.23;37.84;101649.38;2197998;39;114125;-57
2021/04/20 00:13:35;;;;;;;;;;;;;;;22.22;38.03;101644.03;2195329;39;114760;-56
2021/04/20 00:15:35;;;;;;;;;;;;;;;22.21;38.04;101646.03;2199387;39;114007;-55
2021/04/20 00:17:35;;;;;;;;;;;;;;;22.22;37.70;101646.84;2195074;39;114444;-57
2021/04/20 00:19:34;;;;;;;;;;;;;;;22.20;37.71;101647.19;2189122;39;114316;-57
2021/04/20 00:21:34;;;;;;;;;;;;;;;22.19;37.55;101648.31;2200171;39;114044;-57
2021/04/20 00:23:34;;;;;;;;;;;;;;;22.17;37.72;101653.41;2189845;39;114319;-56
2021/04/20 00:25:33;;;;;;;;;;;;;;;22.17;37.62;101644.94;2192937;39;114037;-59
2021/04/20 00:27:32;;;;;;;;;;;;;;;22.18;37.72;101646.63;2198802;39;116871;-54
2021/04/20 00:29:06;;;;;;;;;;;;;;;22.15;37.61;101642.47;2191006;39;115591;-57
2021/04/20 00:30:37;;;;;;;;;;;;;;;22.16;37.77;101646.94;2192850;39;116318;-60
2021/04/20 00:32:08;;;;;;;;;;;;;;;22.17;37.86;101642.97;2204715;39;115069;-58
2021/04/20 00:33:41;;;;;;;;;;;;;;;22.17;37.82;101636.50;2194136;39;113990;-58
2021/04/20 00:35:40;;;;;;;;;;;;;;;22.16;38.02;101646.13;2190481;39;113568;-53
2021/04/20 00:37:17;;;;;;;;;;;;;;;22.15;37.88;101639.63;2189935;39;114166;-57
2021/04/20 00:38:49;;;;;;;;;;;;;;;22.15;37.82;101642.47;2189544;39;113926;-57
2021/04/20 00:40:20;;;;;;;;;;;;;;;22.16;38.09;101648.94;2198129;39;114901;-58
2021/04/20 00:41:56;;;;;;;;;;;;;;;22.11;37.68;101641.38;2196969;39;113852;-56
2021/04/20 00:43:56;;;;;;;;;;;;;;;22.15;37.79;101641.63;2188545;39;113997;-56
2021/04/20 00:45:55;;;;;;;;;;;;;;;22.13;37.91;101641.91;2188935;39;113899;-56
2021/04/20 00:47:55;;;;;;;;;;;;;;;22.12;37.72;101636.59;2186238;39;114111;-59
2021/04/20 00:49:54;;;;;;;;;;;;;;;22.12;37.52;101633.78;2189450;39;113946;-56
2021/04/20 00:51:54;;;;;;;;;;;;;;;22.10;37.93;101634.06;2188097;39;116007;-57
2021/04/20 00:53:52;;;;;;;;;;;;;;;22.11;37.90;101634.91;2202979;39;113850;-55
2021/04/20 00:55:52;;;;;;;;;;;;;;;22.11;37.42;101635.75;2189448;39;113727;-55
2021/04/20 00:57:29;;;;;;;;;;;;;;;22.08;36.60;101625.09;2197289;39;114010;-56
2021/04/20 00:59:01;;;;;;;;;;;;;;;22.07;36.90;101634.69;2189082;39;115842;-56
2021/04/20 01:00:32;;;;;;;;;;;;;;;22.06;36.62;101634.97;2202490;39;114690;-58
2021/04/20 01:02:32;;;;;;;;;;;;;;;22.07;37.46;101628.22;2190491;39;114090;-57
2021/04/20 01:04:31;;;;;;;;;;;;;;;22.07;37.51;101628.22;2188103;39;113877;-58
2021/04/20 01:06:11;;;;;;;;;;;;;;;22.06;37.48;101635.81;2191100;39;116123;-59
2021/04/20 01:07:43;;;;;;;;;;;;;;;22.07;37.44;101622.59;2189636;39;115863;-58
2021/04/20 01:09:16;;;;;;;;;;;;;;;22.06;37.82;101624.56;2194951;39;114957;-58
2021/04/20 01:10:50;;;;;;;;;;;;;;;22.06;37.64;101626.53;2187850;39;115124;-57
2021/04/20 01:12:49;;;;;;;;;;;;;;;22.04;37.81;101624.03;2194465;39;114286;-54
2021/04/20 01:14:28;;;;;;;;;;;;;;;22.03;37.99;101629.97;2185285;39;113995;-55
2021/04/20 01:16:27;;;;;;;;;;;;;;;22.04;37.92;101624.03;2198338;39;114157;-57
2021/04/20 01:18:02;;;;;;;;;;;;;;;22.02;38.21;101625.47;2186203;39;114921;-54
2021/04/20 01:19:35;;;;;;;;;;;;;;;22.02;38.33;101628.28;2187922;39;114914;-57
2021/04/20 01:27:29;;;;;;;;;;;;;;;22.01;38.31;101618.16;2181942;39;114084;-57
2021/04/20 01:30:41;;;;;;;;;;;;;;;22.04;38.26;101626.84;2191859;39;115556;-55
2021/04/20 01:32:12;;;;;;;;;;;;;;;22.02;37.97;101629.13;2185736;39;115763;-56
2021/04/20 01:33:44;;;;;;;;;;;;;;;22.02;38.01;101626.31;2185685;39;115360;-60
2021/04/20 01:35:43;;;;;;;;;;;;;;;22.00;38.09;101625.78;2184576;39;114078;-58
2021/04/20 01:37:15;;;;;;;;;;;;;;;21.99;38.09;101631.69;2190027;39;116596;-58
2021/04/20 01:39:16;;;;;;;;;;;;;;;22.00;38.35;101616.47;2185715;39;114059;-57
2021/04/20 01:41:16;;;;;;;;;;;;;;;21.97;38.33;101628.34;2183306;39;114042;-58
2021/04/20 01:44:50;;;;;;;;;;;;;;;21.97;38.34;101612.31;2180394;39;115938;-55
2021/04/20 01:46:22;;;;;;;;;;;;;;;21.96;38.46;101621.03;2183102;39;115762;-56
2021/04/20 01:47:59;;;;;;;;;;;;;;;21.95;38.32;101613.72;2191862;39;114708;-58
2021/04/20 01:49:40;;;;;;;;;;;;;;;21.95;38.49;101620.22;2183121;39;113697;-57
2021/04/20 01:51:12;;;;;;;;;;;;;;;21.93;38.33;101618.84;2183401;39;113816;-57
2021/04/20 01:53:11;;;;;;;;;;;;;;;21.94;38.21;101624.16;2189719;39;113981;-55
2021/04/20 01:54:52;;;;;;;;;;;;;;;21.95;38.20;101625.00;2186076;39;114441;-57
2021/04/20 01:56:24;;;;;;;;;;;;;;;21.93;38.21;101622.50;2190238;39;114095;-55
2021/04/20 01:58:25;;;;;;;;;;;;;;;21.92;38.83;101626.41;2183731;39;114021;-60
2021/04/20 02:00:00;;;;;;;;;;;;;;;21.94;38.46;101618.53;2183582;39;113880;-57
2021/04/20 02:01:32;;;;;;;;;;;;;;;21.94;38.60;101610.09;2184361;39;113547;-57
2021/04/20 02:03:04;;;;;;;;;;;;;;;21.93;38.27;101616.03;2183257;39;114086;-56
2021/04/20 02:04:35;;;;;;;;;;;;;;;21.92;38.56;101615.16;2183607;39;114327;-56
2021/04/20 02:08:36;;;;;;;;;;;;;;;21.88;38.65;101604.81;2185114;39;113681;-57
2021/04/20 02:10:35;;;;;;;;;;;;;;;21.86;38.33;101610.72;2186261;39;113753;-59
2021/04/20 02:12:35;;;;;;;;;;;;;;;21.86;38.72;101609.88;2180258;39;114005;-55
2021/04/20 02:14:37;;;;;;;;;;;;;;;21.85;38.39;101613.88;2184195;39;114188;-56
2021/04/20 02:16:09;;;;;;;;;;;;;;;21.81;38.83;101612.75;2185671;39;115138;-57
2021/04/20 02:17:42;;;;;;;;;;;;;;;21.87;38.67;101605.94;2182586;39;114811;-57
2021/04/20 02:19:22;;;;;;;;;;;;;;;21.88;38.37;101605.66;2189094;39;115270;-55
2021/04/20 02:20:53;;;;;;;;;;;;;;;21.87;38.67;101609.59;2184850;39;114886;-57
2021/04/20 02:23:24;;;;;;;;;;;;;;;21.87;38.58;101611.56;2192881;39;114813;-57
2021/04/20 02:25:55;;;;;;;;;;;;;;;21.87;38.51;101603.13;2190299;39;113877;-56
2021/04/20 02:28:26;;;;;;;;;;;;;;;21.86;38.30;101604.25;2188889;39;114076;-55
2021/04/20 02:29:58;;;;;;;;;;;;;;;21.85;38.60;101605.44;2189647;39;115029;-58
2021/04/20 02:31:32;;;;;;;;;;;;;;;21.84;38.50;101596.16;2191835;39;115223;-56
2021/04/20 02:33:04;;;;;;;;;;;;;;;21.84;38.34;101593.34;2194891;39;115657;-58
2021/04/20 02:34:36;;;;;;;;;;;;;;;21.87;38.56;101594.69;2203043;39;114830;-58
2021/04/20 02:36:09;;;;;;;;;;;;;;;21.83;38.29;101597.28;2195124;39;115148;-58
2021/04/20 02:37:42;;;;;;;;;;;;;;;21.82;38.63;101591.94;2189489;39;115240;-57
2021/04/20 02:39:14;;;;;;;;;;;;;;;21.83;38.44;101593.63;2200765;39;114837;-55
2021/04/20 02:40:55;;;;;;;;;;;;;;;21.80;38.60;101597.03;2192085;39;115714;-56
2021/04/20 02:42:27;;;;;;;;;;;;;;;21.80;38.67;101588.59;2192673;39;115417;-57
2021/04/20 02:44:28;;;;;;;;;;;;;;;21.81;38.68;101595.88;2199847;39;114093;-57
2021/04/20 02:46:27;;;;;;;;;;;;;;;21.79;38.53;101590.59;2191499;39;114079;-55
2021/04/20 02:48:28;;;;;;;;;;;;;;;21.79;38.75;101593.41;2200982;39;114073;-55
2021/04/20 02:49:59;;;;;;;;;;;;;;;21.80;38.48;101597.03;2188274;39;115879;-55
2021/04/20 02:51:33;;;;;;;;;;;;;;;21.82;38.62;101597.56;2189054;39;115587;-55
2021/04/20 02:53:04;;;;;;;;;;;;;;;21.80;38.61;101599.88;2188773;39;115750;-56
2021/04/20 02:54:39;;;;;;;;;;;;;;;21.79;38.70;101592.56;2189899;39;116269;-58
2021/04/20 02:56:13;;;;;;;;;;;;;;;21.75;39.03;101592.31;2184472;39;116535;-55
2021/04/20 02:57:45;;;;;;;;;;;;;;;21.75;38.77;101595.13;2190148;39;114508;-59
2021/04/20 02:59:18;;;;;;;;;;;;;;;21.74;38.61;101594.28;2190357;39;116119;-57
2021/04/20 03:01:18;;;;;;;;;;;;;;;21.76;38.92;101593.16;2187066;39;114016;-59
2021/04/20 03:03:19;;;;;;;;;;;;;;;21.75;38.89;101592.31;2191340;39;115468;-60
2021/04/20 03:05:20;;;;;;;;;;;;;;;21.74;38.59;101591.47;2189441;39;115030;-57
2021/04/20 03:07:19;;;;;;;;;;;;;;;21.73;38.63;101587.00;2189299;39;114120;-59
2021/04/20 03:09:18;;;;;;;;;;;;;;;21.72;38.65;101587.28;2191316;39;114205;-58
2021/04/20 03:11:21;;;;;;;;;;;;;;;21.71;38.38;101594.88;2187878;39;113751;-58
2021/04/20 03:13:20;;;;;;;;;;;;;;;21.73;38.50;101589.81;2185383;39;113954;-54
2021/04/20 03:15:19;;;;;;;;;;;;;;;21.70;38.76;101589.56;2189862;39;113624;-56
2021/04/20 03:16:53;;;;;;;;;;;;;;;21.71;38.28;101588.44;2190373;39;114011;-56
2021/04/20 03:18:24;;;;;;;;;;;;;;;21.69;38.79;101582.28;2192357;39;114158;-56
2021/04/20 03:19:56;;;;;;;;;;;;;;;21.70;38.45;101584.78;2186494;39;114393;-56
2021/04/20 03:21:56;;;;;;;;;;;;;;;21.70;38.45;101589.56;2193923;39;113979;-58
2021/04/20 03:24:29;;;;;;;;;;;;;;;21.69;38.36;101588.72;2196134;39;113826;-55
2021/04/20 03:26:41;;;;;;;;;;;;;;;21.67;38.86;101584.53;2196196;39;113775;-57
2021/04/20 03:28:44;;;;;;;;;;;;;;;21.68;38.70;101572.16;2192373;39;113978;-56
2021/04/20 03:31:16;;;;;;;;;;;;;;;21.68;38.90;101577.78;2196187;39;113539;-56
2021/04/20 03:33:47;;;;;;;;;;;;;;;21.67;38.90;101579.75;2194246;39;115235;-56
2021/04/20 03:36:18;;;;;;;;;;;;;;;21.66;39.16;101568.81;2196447;39;113740;-55
2021/04/20 03:38:49;;;;;;;;;;;;;;;21.67;38.69;101574.13;2192986;39;115349;-58
2021/04/20 03:41:20;;;;;;;;;;;;;;;21.63;39.01;101573.06;2197729;39;113848;-59
2021/04/20 03:43:03;;;;;;;;;;;;;;;21.65;39.11;101576.41;2194945;39;115043;-55
2021/04/20 03:44:37;;;;;;;;;;;;;;;21.65;38.77;101572.75;2201830;39;115306;-56
2021/04/20 03:46:13;;;;;;;;;;;;;;;21.64;39.32;101576.72;2195444;39;114886;-58
2021/04/20 03:47:46;;;;;;;;;;;;;;;21.64;39.43;101568.28;2196652;39;114910;-56
2021/04/20 03:49:21;;;;;;;;;;;;;;;21.63;39.65;101573.06;2194986;39;114780;-55
2021/04/20 03:50:56;;;;;;;;;;;;;;;21.63;39.60;101572.22;2191627;39;115169;-57
2021/04/20 03:52:32;;;;;;;;;;;;;;;21.63;39.43;101570.25;2198468;39;115377;-59
2021/04/20 03:54:07;;;;;;;;;;;;;;;21.62;39.45;101567.75;2189014;39;114764;-56
2021/04/20 03:56:07;;;;;;;;;;;;;;;21.63;39.20;101570.25;2196849;39;113905;-55
2021/04/20 03:58:12;;;;;;;;;;;;;;;21.63;39.42;101573.06;2195679;39;114937;-55
2021/04/20 04:00:13;;;;;;;;;;;;;;;21.63;39.14;101570.25;2185368;39;115375;-59
2021/04/20 04:02:13;;;;;;;;;;;;;;;21.61;39.70;101566.06;2195864;39;114000;-56
2021/04/20 04:04:15;;;;;;;;;;;;;;;21.61;39.31;101569.72;2196411;39;114832;-59
2021/04/20 04:05:51;;;;;;;;;;;;;;;21.61;39.19;101575.34;2202792;39;116439;-55
2021/04/20 04:07:23;;;;;;;;;;;;;;;21.59;39.40;101574.78;2189457;39;118307;-58
2021/04/20 04:08:55;;;;;;;;;;;;;;;21.60;39.10;101578.44;2191770;39;117167;-56
2021/04/20 04:10:29;;;;;;;;;;;;;;;21.59;39.28;101580.41;2200322;39;115855;-57
2021/04/20 04:12:29;;;;;;;;;;;;;;;21.57;39.34;101573.44;2189523;39;114222;-56
2021/04/20 04:14:30;;;;;;;;;;;;;;;21.55;39.21;101570.91;2194424;39;114192;-55
2021/04/20 04:16:30;;;;;;;;;;;;;;;21.55;39.28;101573.72;2182688;39;114916;-56
2021/04/20 04:18:30;;;;;;;;;;;;;;;21.57;39.05;101579.06;2200413;39;114462;-59
2021/04/20 04:20:06;;;;;;;;;;;;;;;21.55;38.97;101572.88;2196773;39;115713;-56
2021/04/20 04:21:44;;;;;;;;;;;;;;;21.56;39.26;101578.22;2197089;39;116112;-58
2021/04/20 04:30:46;;;;;;;;;;;;;;;21.53;39.17;101570.34;2189638;39;113956;-56
2021/04/20 04:32:19;;;;;;;;;;;;;;;21.52;39.13;101577.16;2190868;39;113730;-58
2021/04/20 04:34:18;;;;;;;;;;;;;;;21.52;39.30;101571.53;2185723;39;115452;-57
2021/04/20 04:35:56;;;;;;;;;;;;;;;21.51;39.07;101581.09;2200511;39;113792;-55
2021/04/20 04:37:56;;;;;;;;;;;;;;;21.51;39.41;101567.03;2190794;39;113636;-60
2021/04/20 04:39:55;;;;;;;;;;;;;;;21.50;39.06;101579.41;2202098;39;113845;-57
2021/04/20 04:41:27;;;;;;;;;;;;;;;21.50;39.44;101579.41;2189856;39;113881;-56
2021/04/20 04:43:00;;;;;;;;;;;;;;;21.49;39.31;101574.06;2192016;39;113938;-56
2021/04/20 04:44:33;;;;;;;;;;;;;;;21.50;39.31;101579.41;2189394;39;113842;-58
2021/04/20 04:46:04;;;;;;;;;;;;;;;21.51;39.47;101581.09;2188012;39;114072;-58
2021/04/20 04:47:44;;;;;;;;;;;;;;;21.49;39.16;101579.69;2192244;39;113554;-56
2021/04/20 04:49:17;;;;;;;;;;;;;;;21.49;39.50;101582.50;2188590;39;114173;-55
2021/04/20 04:50:50;;;;;;;;;;;;;;;21.51;39.35;101581.09;2191778;39;113782;-58
2021/04/20 04:52:22;;;;;;;;;;;;;;;21.47;39.72;101573.56;2189014;39;114866;-59
2021/04/20 04:54:00;;;;;;;;;;;;;;;21.49;39.56;101574.06;2187741;39;115777;-58
2021/04/20 04:56:01;;;;;;;;;;;;;;;21.48;39.70;101580.84;2189472;39;113608;-57
2021/04/20 04:58:01;;;;;;;;;;;;;;;21.46;39.24;101580.31;2199463;39;114326;-60
2021/04/20 04:59:41;;;;;;;;;;;;;;;21.44;39.76;101580.59;2186465;39;115257;-57
2021/04/20 05:01:13;;;;;;;;;;;;;;;21.46;40.05;101578.34;2193736;39;115574;-55
2021/04/20 05:02:51;;;;;;;;;;;;;;;21.52;40.16;101581.94;2190886;39;114954;-57
2021/04/20 05:04:24;;;;;;;;;;;;;;;21.53;40.07;101590.03;2189107;39;114865;-57
2021/04/20 05:05:57;;;;;;;;;;;;;;;21.53;40.33;101578.78;2195195;39;114939;-56
2021/04/20 05:07:29;;;;;;;;;;;;;;;21.53;40.14;101581.59;2189090;39;114922;-56
2021/04/20 05:09:29;;;;;;;;;;;;;;;21.55;40.51;101589.75;2190976;39;114154;-59
2021/04/20 05:11:28;;;;;;;;;;;;;;;21.59;40.31;101590.81;2193567;39;115294;-57
2021/04/20 05:13:28;;;;;;;;;;;;;;;21.61;40.53;101582.94;2190957;39;113933;-55
2021/04/20 05:15:29;;;;;;;;;;;;;;;21.64;40.89;101583.16;2201837;39;113839;-58
2021/04/20 05:17:11;;;;;;;;;;;;;;;21.67;40.58;101579.75;2182541;39;115748;-55
2021/04/20 05:18:42;;;;;;;;;;;;;;;21.71;41.30;101588.44;2188317;39;115533;-57
2021/04/20 05:20:17;;;;;;;;;;;;;;;21.74;41.18;101588.66;2188386;39;115656;-56
2021/04/20 05:21:48;;;;;;;;;;;;;;;21.80;41.31;101588.59;2201142;39;115742;-56
2021/04/20 05:23:20;;;;;;;;;;;;;;;21.83;41.91;101588.00;2193121;39;115608;-58
2021/04/20 05:27:52;;;;;;;;;;;;;;;21.95;40.80;101592.06;2190285;39;116076;-55
2021/04/20 05:29:23;;;;;;;;;;;;;;;21.99;40.79;101593.13;2200135;39;115488;-57
2021/04/20 05:31:23;;;;;;;;;;;;;;;22.04;40.52;101589.41;2195484;39;114035;-56
2021/04/20 05:33:22;;;;;;;;;;;;;;;22.10;40.31;101591.88;2188393;39;114040;-58
2021/04/20 05:35:00;;;;;;;;;;;;;;;22.14;40.09;101594.91;2191464;39;116436;-56
2021/04/20 05:36:32;;;;;;;;;;;;;;;22.18;40.16;101590.34;2188250;39;116171;-55
2021/04/20 05:38:07;;;;;;;;;;;;;;;22.22;39.99;101596.19;2200804;39;115734;-55
2021/04/20 05:40:08;;;;;;;;;;;;;;;22.27;40.04;101593.28;2188481;39;114145;-56
2021/04/20 05:42:07;;;;;;;;;;;;;;;22.34;39.64;101599.41;2189409;39;113902;-56
2021/04/20 05:44:08;;;;;;;;;;;;;;;22.38;39.59;101592.00;2186520;39;113893;-55
2021/04/20 05:45:43;;;;;;;;;;;;;;;22.42;39.60;101595.88;2197232;39;113976;-59
2021/04/20 05:47:14;;;;;;;;;;;;;;;22.46;39.55;101594.13;2193325;39;113931;-58
2021/04/20 05:48:47;;;;;;;;;;;;;;;22.49;39.42;101594.34;2188697;39;113815;-55
2021/04/20 05:50:51;;;;;;;;;;;;;;;22.53;39.73;101588.97;2183994;39;113864;-58
2021/04/20 05:52:50;;;;;;;;;;;;;;;22.59;39.66;101598.97;2187226;39;115639;-57
2021/04/20 05:54:53;;;;;;;;;;;;;;;22.63;39.14;101595.25;2202912;39;114261;-56
2021/04/20 05:56:27;;;;;;;;;;;;;;;22.67;39.29;101597.47;2190254;39;114791;-55
2021/04/20 05:58:00;;;;;;;;;;;;;;;22.71;39.28;101604.19;2198035;39;114678;-57
2021/04/20 05:59:59;;;;;;;;;;;;;;;22.74;39.21;101607.22;2189876;39;114272;-57
2021/04/20 06:01:34;;;;;;;;;;;;;;;22.77;38.92;101609.41;2191818;39;114519;-57
2021/04/20 06:03:08;;;;;;;;;;;;;;;22.81;39.11;101612.44;2192068;39;113869;-55
2021/04/20 06:04:42;;;;;;;;;;;;;;;22.84;38.91;101609.88;2186858;39;114164;-57
2021/04/20 06:06:43;;;;;;;;;;;;;;;22.88;38.79;101610.94;2190812;39;113660;-57
2021/04/20 06:08:42;;;;;;;;;;;;;;;22.91;38.65;101604.66;2189299;39;114503;-60
2021/04/20 06:10:42;;;;;;;;;;;;;;;22.96;38.68;101603.75;2188233;39;113654;-57
2021/04/20 06:12:15;;;;;;;;;;;;;;;22.98;38.72;101605.13;2188849;39;115120;-58
2021/04/20 06:13:47;;;;;;;;;;;;;;;23.02;38.42;101608.16;2194150;39;114858;-54
2021/04/20 06:15:20;;;;;;;;;;;;;;;23.05;38.36;101604.69;2190789;39;115557;-58
2021/04/20 06:16:52;;;;;;;;;;;;;;;23.08;38.21;101603.25;2188355;39;115292;-54
2021/04/20 06:18:52;;;;;;;;;;;;;;;23.11;38.20;101602.63;2193247;39;114322;-58
2021/04/20 06:20:24;;;;;;;;;;;;;;;23.14;38.35;101607.63;2187888;39;114944;-57
2021/04/20 06:21:56;;;;;;;;;;;;;;;23.17;38.12;101601.41;2199343;39;114812;-56
2021/04/20 06:23:28;;;;;;;;;;;;;;;23.18;38.00;101609.53;2193287;39;115076;-57
2021/04/20 06:25:00;;;;;;;;;;;;;;;23.22;38.04;101610.56;2199914;39;116042;-54
2021/04/20 06:27:11;;;;;;;;;;;;;;;23.25;38.12;101615.63;2189529;39;115092;-57
2021/04/20 06:29:14;;;;;;;;;;;;;;;23.28;37.75;101614.13;2188259;39;115048;-58
2021/04/20 06:30:56;;;;;;;;;;;;;;;23.29;37.76;101608.19;2191534;39;115036;-57
2021/04/20 06:32:56;;;;;;;;;;;;;;;23.32;37.62;101604.75;2190654;39;114436;-55
2021/04/20 06:34:55;;;;;;;;;;;;;;;23.33;37.68;101606.44;2188080;39;114212;-57
2021/04/20 06:36:55;;;;;;;;;;;;;;;23.36;37.53;101610.59;2189632;39;114111;-58
2021/04/20 06:38:54;;;;;;;;;;;;;;;23.37;37.70;101601.00;2194015;39;114958;-56
2021/04/20 06:40:55;;;;;;;;;;;;;;;23.39;37.61;101605.16;2189176;39;114165;-57
2021/04/20 06:42:58;;;;;;;;;;;;;;;23.40;37.64;101609.66;2185146;39;114143;-57
2021/04/20 06:44:34;;;;;;;;;;;;;;;23.40;37.80;101604.03;2199613;39;114584;-57
2021/04/20 06:46:10;;;;;;;;;;;;;;;23.41;37.71;101596.41;2192694;39;114491;-57
2021/04/20 06:48:13;;;;;;;;;;;;;;;23.43;38.40;101602.56;2191115;39;114022;-57
2021/04/20 06:49:50;;;;;;;;;;;;;;;23.43;38.55;101594.97;2190822;39;115589;-58
2021/04/20 06:51:23;;;;;;;;;;;;;;;23.46;38.21;101600.00;2194852;39;117009;-54
2021/04/20 06:53:05;;;;;;;;;;;;;;;23.49;38.13;101604.16;2188212;39;115917;-57
2021/04/20 06:54:44;;;;;;;;;;;;;;;23.49;38.23;101593.72;2189232;39;115633;-57
2021/04/20 06:56:18;;;;;;;;;;;;;;;23.50;38.31;101594.56;2190618;39;116609;-63
2021/04/20 06:57:50;;;;;;;;;;;;;;;23.49;37.65;101598.50;2190547;39;113784;-56
2021/04/20 06:59:50;;;;;;;;;;;;;;;23.39;37.08;101596.69;2194287;39;114035;-56
2021/04/20 07:01:53;;;;;;;;;;;;;;;23.33;35.62;101605.59;2187187;39;114118;-57
2021/04/20 07:04:01;;;;;;;;;;;;;;;23.27;36.08;101599.22;2189930;39;115413;-58
2021/04/20 07:06:00;;;;;;;;;;;;;;;23.22;35.37;101606.91;2191517;39;114682;-56
2021/04/20 07:09:12;;;;;;;;;;;;;;;23.27;35.29;101602.03;2189883;39;113738;-54
2021/04/20 07:10:44;;;;;;;;;;;;;;;23.22;34.85;101604.94;2188809;39;115288;-57
2021/04/20 07:12:17;;;;;;;;;;;;;;;23.27;35.19;101607.66;2189169;39;113947;-55
2021/04/20 07:14:24;;;;;;;;;;;;;;;23.26;35.11;101600.34;2199563;39;113651;-55
2021/04/20 07:16:25;;;;;;;;;;;;;;;23.24;34.98;101599.84;2190484;39;113917;-54
2021/04/20 07:18:30;;;;;;;;;;;;;;;23.23;34.62;101600.13;2188428;39;113966;-57
2021/04/20 07:20:33;;;;;;;;;;;;;;;23.19;34.51;101597.09;2195354;39;114463;-55
2021/04/20 07:22:17;;;;;;;;;;;;;;;23.19;35.17;101599.09;2191356;39;113930;-58
2021/04/20 07:23:51;;;;;;;;;;;;;;;23.18;35.37;101597.41;2194160;39;115783;-56
2021/04/20 07:32:01;;;;;;;;;;;;;;;23.15;34.93;101601.69;2195634;39;113785;-55
2021/04/20 07:34:05;;;;;;;;;;;;;;;23.13;34.92;101608.78;2195990;39;115237;-58
2021/04/20 07:36:11;;;;;;;;;;;;;;;23.08;34.67;101598.44;2195230;39;114507;-55
2021/04/20 07:38:16;;;;;;;;;;;;;;;23.07;34.61;101601.59;2197238;39;114913;-56
2021/04/20 07:40:22;;;;;;;;;;;;;;;23.05;34.69;101599.91;2203235;39;115020;-55
2021/04/20 07:42:35;;;;;;;;;;;;;;;23.03;34.27;101601.38;2195049;39;114117;-56
2021/04/20 07:44:40;;;;;;;;;;;;;;;23.02;33.97;101606.16;2193275;39;113792;-56
2021/04/20 07:46:16;;;;;;;;;;;;;;;22.98;33.94;101599.47;2202884;39;114755;-54
2021/04/20 07:47:49;;;;;;;;;;;;;;;22.97;33.86;101594.97;2199843;39;115366;-56
2021/04/20 07:49:24;;;;;;;;;;;;;;;22.98;33.75;101598.66;2197852;39;114885;-54
2021/04/20 07:50:59;;;;;;;;;;;;;;;22.95;33.56;101605.72;2200827;39;114544;-55
2021/04/20 07:53:03;;;;;;;;;;;;;;;22.95;33.71;101602.91;2198808;39;114096;-57
2021/04/20 07:54:43;;;;;;;;;;;;;;;22.95;33.23;101597.25;2195968;39;115959;-56
2021/04/20 07:56:16;;;;;;;;;;;;;;;22.94;33.42;101598.41;2195157;39;116268;-55
2021/04/20 07:57:48;;;;;;;;;;;;;;;22.94;33.41;101598.41;2197033;39;115891;-55
2021/04/20 07:59:25;;;;;;;;;;;;;;;22.92;33.10;101600.72;2193060;39;115971;-55
2021/04/20 08:01:02;;;;;;;;;;;;;;;22.93;32.89;101607.19;2203176;39;116260;-56
2021/04/20 08:02:35;;;;;;;;;;;;;;;22.92;33.25;101605.50;2194697;39;115624;-57
2021/04/20 08:04:37;;;;;;;;;;;;;;;22.90;33.03;101597.34;2194421;39;114312;-57
2021/04/20 08:06:13;;;;;;;;;;;;;;;22.89;33.12;101597.69;2193673;39;114696;-55
2021/04/20 08:07:47;;;;;;;;;;;;;;;22.88;33.01;101594.03;2195124;39;115993;-54
2021/04/20 08:09:48;;;;;;;;;;;;;;;22.78;33.53;101597.00;2195021;39;114025;-56
2021/04/20 08:11:50;;;;;;;;;;;;;;;22.57;30.18;101593.69;2193468;39;114048;-55
2021/04/20 08:13:32;;;;;;;;;;;;;;;22.36;29.41;101585.84;2203522;39;115242;-54
2021/04/20 08:15:09;;;;;;;;;;;;;;;22.42;30.01;101587.44;2194701;39;116008;-55
2021/04/20 08:16:44;;;;;;;;;;;;;;;22.27;29.74;101590.47;2206502;39;115648;-55
2021/04/20 08:18:18;;;;;;;;;;;;;;;22.30;30.29;101590.72;2199957;39;113661;-56
2021/04/20 08:20:20;;;;;;;;;;;;;;;22.36;31.27;101591.47;2200965;39;114697;-60
2021/04/20 08:22:20;;;;;;;;;;;;;;;22.37;31.57;101588.34;2196798;39;113718;-54
2021/04/20 08:24:23;;;;;;;;;;;;;;;22.39;31.69;101583.28;2194775;39;114018;-55
2021/04/20 08:28:35;;;;;;;;;;;;;;;22.42;31.89;101584.63;2191576;39;114511;-56
2021/04/20 08:31:07;;;;;;;;;;;;;;;22.42;31.93;101584.63;2188617;39;113982;-56
2021/04/20 08:32:48;;;;;;;;;;;;;;;22.38;31.62;101580.75;2189363;39;113720;-56
2021/04/20 08:34:23;;;;;;;;;;;;;;;22.36;31.41;101581.03;2188075;39;113986;-56
2021/04/20 08:36:27;;;;;;;;;;;;;;;22.37;31.55;101579.06;2192322;39;113851;-57
2021/04/20 08:38:02;;;;;;;;;;;;;;;22.35;32.14;101581.38;2190292;39;114508;-57
2021/04/20 08:39:34;;;;;;;;;;;;;;;22.36;31.98;101577.38;2190860;39;113934;-55
2021/04/20 08:41:16;;;;;;;;;;;;;;;22.37;31.96;101579.06;2188534;39;113699;-55
2021/04/20 08:42:50;;;;;;;;;;;;;;;22.35;32.26;101576.53;2192175;39;114122;-56
2021/04/20 08:44:25;;;;;;;;;;;;;;;22.34;32.15;101582.50;2188854;39;114932;-57
2021/04/20 08:46:01;;;;;;;;;;;;;;;22.40;32.19;101578.44;2190166;39;115506;-54
2021/04/20 08:48:04;;;;;;;;;;;;;;;22.36;32.72;101581.03;2194256;39;113742;-56
2021/04/20 08:50:06;;;;;;;;;;;;;;;22.31;32.57;101581.13;2188078;39;114172;-58
2021/04/20 08:52:14;;;;;;;;;;;;;;;22.31;31.69;101580.28;2182525;39;114257;-55
2021/04/20 08:53:50;;;;;;;;;;;;;;;22.30;31.79;101573.84;2194779;39;115108;-56
2021/04/20 08:55:26;;;;;;;;;;;;;;;22.28;31.64;101578.94;2192933;39;113970;-57
2021/04/20 08:57:03;;;;;;;;;;;;;;;22.26;32.13;101580.38;2190518;39;114980;-57
2021/04/20 08:58:38;;;;;;;;;;;;;;;22.23;32.04;101576.19;2190272;39;114830;-56
2021/04/20 09:00:12;;;;;;;;;;;;;;;22.24;32.31;101571.41;2186268;39;115285;-55
2021/04/20 09:01:47;;;;;;;;;;;;;;;22.24;32.04;101575.06;2189152;39;115534;-58
2021/04/20 09:03:20;;;;;;;;;;;;;;;22.25;32.10;101573.91;2189207;39;114785;-57
2021/04/20 09:04:55;;;;;;;;;;;;;;;22.26;32.36;101580.38;2188745;39;115429;-57
2021/04/20 09:06:36;;;;;;;;;;;;;;;22.24;32.45;101575.06;2192118;39;114980;-56
2021/04/20 09:08:15;;;;;;;;;;;;;;;22.26;32.29;101580.38;2189028;39;115799;-56
2021/04/20 09:10:15;;;;;;;;;;;;;;;22.25;32.33;101578.72;2186496;39;115746;-57
2021/04/20 09:12:15;;;;;;;;;;;;;;;22.24;32.47;101583.50;2193032;39;114415;-57
2021/04/20 09:13:58;;;;;;;;;;;;;;;22.25;32.48;101585.19;2188992;39;115793;-55
2021/04/20 09:15:33;;;;;;;;;;;;;;;22.25;32.33;101579.53;2187877;39;115527;-56
2021/04/20 09:17:09;;;;;;;;;;;;;;;22.26;32.61;101577.56;2189097;39;115481;-58
2021/04/20 09:19:10;;;;;;;;;;;;;;;22.26;32.65;101571.94;2181796;39;114184;-57
2021/04/20 09:21:14;;;;;;;;;;;;;;;22.27;32.36;101579.22;2190789;39;114317;-59
2021/04/20 09:23:16;;;;;;;;;;;;;;;22.27;32.33;101582.88;2191927;39;114353;-54
2021/04/20 09:25:17;;;;;;;;;;;;;;;22.26;32.31;101586.03;2188697;39;114851;-55
2021/04/20 09:27:21;;;;;;;;;;;;;;;22.26;32.36;101584.00;2189687;39;114112;-55
2021/04/20 09:29:54;;;;;;;;;;;;;;;22.26;32.44;101580.38;2194254;39;114546;-57
2021/04/20 09:32:06;;;;;;;;;;;;;;;22.25;32.65;101576.72;2189921;39;116030;-55
2021/04/20 09:34:38;;;;;;;;;;;;;;;22.27;32.18;101582.03;2192911;39;114085;-55
2021/04/20 09:36:40;;;;;;;;;;;;;;;22.25;32.21;101588.00;2188433;39;113787;-57
2021/04/20 09:38:42;;;;;;;;;;;;;;;22.24;32.67;101577.88;2195041;39;114471;-57